Ware River @ Gibbs Crossing, Ma

Ware River at Gibbs Crossing
 Total Drainage Area: 199 sq. miles 
 Drainage Area Controlled by Corps Dams: 55 sq. miles (28%) 
 Warning Flow/Stage: 2,030 cfs / 5.0 feet 
 Flood Flow/Stage: 2,415 cfs / 5.5 feet 
Date Time
(Eastern)
Stage
(ft)
Flow
(cfs)
CSM
May-28 01:30 pm 2.46 136 .7
May-28 12:30 pm 2.45 133 .7
May-28 11:30 am 2.45 133 .7
May-28 10:30 am 2.44 130 .7
May-28 09:30 am 2.45 133 .7
May-28 08:30 am 2.45 133 .7
May-28 07:30 am 2.45 133 .7
May-28 06:30 am 2.47 139 .7
May-28 05:30 am 2.54 161 .8
May-28 04:30 am 2.50 148 .7
May-28 03:30 am 2.40 119 .6
May-28 02:30 am 2.39 117 .6
May-28 01:30 am 2.39 117 .6
May-28 12:30 am 2.39 117 .6
May-27 11:30 pm 2.39 117 .6
May-27 10:30 pm 2.39 117 .6
May-27 09:30 pm 2.40 119 .6
May-27 08:30 pm 2.40 119 .6
May-27 07:30 pm 2.39 117 .6
May-27 06:30 pm 2.39 117 .6
May-27 05:30 pm 2.39 117 .6
May-27 04:30 pm 2.39 117 .6
May-27 03:30 pm 2.39 117 .6
May-27 02:30 pm 2.39 117 .6
May-27 01:30 pm 2.39 117 .6
Report Generated May 28, 2022 05:53 pm